createdAt,value
2023-01-19T00:01:24.835Z,-4.60
2023-01-19T00:03:24.682Z,-4.60
2023-01-19T00:05:24.692Z,-4.60
2023-01-19T00:07:24.790Z,-4.60
2023-01-19T00:09:24.727Z,-4.60
2023-01-19T00:11:24.810Z,-4.60
2023-01-19T00:13:24.696Z,-4.80
2023-01-19T00:15:25.194Z,-4.80
2023-01-19T00:17:24.743Z,-4.80
2023-01-19T00:19:24.707Z,-5.00
2023-01-19T00:21:24.686Z,-5.00
2023-01-19T00:23:24.721Z,-5.00
2023-01-19T00:25:24.777Z,-4.90
2023-01-19T00:27:24.732Z,-4.90
2023-01-19T00:29:24.731Z,-4.90
2023-01-19T00:31:24.739Z,-4.90
2023-01-19T00:33:24.772Z,-4.80
2023-01-19T00:35:24.726Z,-4.70
2023-01-19T00:37:24.812Z,-4.70
2023-01-19T00:39:24.713Z,-4.70
2023-01-19T00:41:24.744Z,-4.70
2023-01-19T00:43:24.854Z,-4.70
2023-01-19T00:45:24.827Z,-4.80
2023-01-19T00:47:24.706Z,-4.80
2023-01-19T00:49:54.755Z,-4.80
2023-01-19T00:51:54.709Z,-5.00
2023-01-19T00:53:54.697Z,-5.00
2023-01-19T00:55:54.699Z,-4.90
2023-01-19T00:57:54.741Z,-4.90
2023-01-19T00:59:54.821Z,-4.90
2023-01-19T01:01:54.879Z,-4.90
2023-01-19T01:03:54.703Z,-4.90
2023-01-19T01:05:54.769Z,-4.90
2023-01-19T01:07:54.815Z,-4.90
2023-01-19T01:09:54.727Z,-4.90
2023-01-19T01:11:54.776Z,-4.90
2023-01-19T01:13:54.736Z,-4.90
2023-01-19T01:15:54.757Z,-4.90
2023-01-19T01:17:55.012Z,-4.90
2023-01-19T01:19:54.730Z,-4.90
2023-01-19T01:21:54.761Z,-4.90
2023-01-19T01:23:54.729Z,-4.90
2023-01-19T01:25:54.850Z,-4.90
2023-01-19T01:27:54.751Z,-4.90
2023-01-19T01:29:54.751Z,-4.90
2023-01-19T01:31:54.814Z,-4.90
2023-01-19T01:33:54.842Z,-5.00
2023-01-19T01:35:54.790Z,-5.00
2023-01-19T01:37:54.821Z,-5.00
2023-01-19T01:39:54.781Z,-5.00
2023-01-19T01:41:55.888Z,-5.00
2023-01-19T01:43:54.721Z,-5.30
2023-01-19T01:45:54.757Z,-5.30
2023-01-19T01:47:54.740Z,-5.30
2023-01-19T01:49:54.821Z,-5.30
2023-01-19T01:51:54.847Z,-5.30
2023-01-19T01:53:54.768Z,-5.00
2023-01-19T01:55:54.858Z,-5.00
2023-01-19T01:57:54.771Z,-5.00
2023-01-19T01:59:54.748Z,-5.00
2023-01-19T02:01:54.890Z,-5.00
2023-01-19T02:03:54.804Z,-4.90
2023-01-19T02:05:54.749Z,-4.90
2023-01-19T02:07:54.777Z,-4.90
2023-01-19T02:09:54.792Z,-5.00
2023-01-19T02:11:54.932Z,-5.00
2023-01-19T02:13:54.768Z,-5.10
2023-01-19T02:15:54.802Z,-5.10
2023-01-19T02:17:54.750Z,-5.10
2023-01-19T02:19:54.787Z,-5.40
2023-01-19T02:21:55.079Z,-5.40
2023-01-19T02:23:54.826Z,-5.50
2023-01-19T02:25:54.806Z,-5.50
2023-01-19T02:27:54.810Z,-5.50
2023-01-19T02:29:54.791Z,-5.50
2023-01-19T02:31:54.810Z,-5.60
2023-01-19T02:34:24.769Z,-5.60
2023-01-19T02:36:24.784Z,-5.60
2023-01-19T02:38:24.883Z,-5.70
2023-01-19T02:40:24.785Z,-5.70
2023-01-19T02:42:24.814Z,-5.70
2023-01-19T02:44:24.811Z,-5.90
2023-01-19T02:46:24.943Z,-5.90
2023-01-19T02:48:24.758Z,-5.90
2023-01-19T02:50:24.806Z,-5.90
2023-01-19T02:52:24.760Z,-5.90
2023-01-19T02:54:24.785Z,-5.90
2023-01-19T02:56:24.873Z,-5.90
2023-01-19T02:58:24.801Z,-5.90
2023-01-19T03:00:24.820Z,-5.70
2023-01-19T03:02:07.384Z,-5.70
2023-01-19T03:04:07.255Z,-5.70
2023-01-19T03:06:07.275Z,-5.70
2023-01-19T03:08:07.230Z,-5.80
2023-01-19T03:10:07.235Z,-5.80
2023-01-19T03:12:07.331Z,-5.80
2023-01-19T03:14:07.435Z,-5.80
2023-01-19T03:16:07.355Z,-5.80
2023-01-19T03:18:37.408Z,-6.00
2023-01-19T03:20:37.282Z,-6.10
2023-01-19T03:22:37.271Z,-6.10
2023-01-19T03:24:37.909Z,-6.10
2023-01-19T03:26:37.285Z,-6.10
2023-01-19T03:28:37.313Z,-6.10
2023-01-19T03:30:37.382Z,-6.10
2023-01-19T03:32:37.292Z,-6.10
2023-01-19T03:34:37.239Z,-6.20
2023-01-19T03:36:37.292Z,-6.20
2023-01-19T03:38:37.269Z,-6.30
2023-01-19T03:40:37.267Z,-6.30
2023-01-19T03:42:37.317Z,-6.30
2023-01-19T03:44:37.270Z,-6.40
2023-01-19T03:46:37.275Z,-6.40
2023-01-19T03:48:37.297Z,-6.40
2023-01-19T03:50:37.242Z,-6.50
2023-01-19T03:52:37.307Z,-6.50
2023-01-19T03:54:37.321Z,-6.50
2023-01-19T03:56:37.342Z,-6.50
2023-01-19T03:58:37.345Z,-6.50
2023-01-19T04:00:37.277Z,-6.50
2023-01-19T04:02:37.341Z,-6.50
2023-01-19T04:04:37.277Z,-6.50
2023-01-19T04:06:37.265Z,-6.50
2023-01-19T04:08:37.307Z,-6.50
2023-01-19T04:10:37.301Z,-6.50
2023-01-19T04:12:37.367Z,-6.50
2023-01-19T04:14:37.314Z,-6.50
2023-01-19T04:16:37.382Z,-6.50
2023-01-19T04:18:37.324Z,-6.50
2023-01-19T04:20:37.279Z,-6.50
2023-01-19T04:22:40.534Z,-6.60
2023-01-19T04:24:37.326Z,-6.70
2023-01-19T04:26:37.318Z,-6.70
2023-01-19T04:28:37.444Z,-6.60
2023-01-19T04:30:37.357Z,-6.60
2023-01-19T04:32:37.306Z,-6.60
2023-01-19T04:34:37.292Z,-6.60
2023-01-19T04:36:37.278Z,-6.60
2023-01-19T04:38:37.303Z,-6.60
2023-01-19T04:40:37.296Z,-6.70
2023-01-19T04:42:37.282Z,-6.70
2023-01-19T04:44:37.300Z,-6.60
2023-01-19T04:46:37.356Z,-6.50
2023-01-19T04:48:37.411Z,-6.50
2023-01-19T04:50:37.296Z,-6.40
2023-01-19T04:52:37.384Z,-6.50
2023-01-19T04:54:37.418Z,-6.50
2023-01-19T04:56:37.396Z,-6.30
2023-01-19T04:58:37.382Z,-6.30
2023-01-19T05:00:37.284Z,-6.20
2023-01-19T05:03:07.454Z,-6.20
2023-01-19T05:05:07.476Z,-6.20
2023-01-19T05:07:07.307Z,-6.20
2023-01-19T05:09:07.362Z,-6.20
2023-01-19T05:11:07.320Z,-6.20
2023-01-19T05:13:07.273Z,-6.20
2023-01-19T05:15:07.547Z,-6.20
2023-01-19T05:17:07.419Z,-6.30
2023-01-19T05:19:07.308Z,-6.30
2023-01-19T05:21:07.346Z,-6.30
2023-01-19T05:23:07.382Z,-6.30
2023-01-19T05:25:07.331Z,-6.30
2023-01-19T05:27:07.318Z,-6.30
2023-01-19T05:29:07.398Z,-6.30
2023-01-19T05:31:07.445Z,-6.30
2023-01-19T05:33:07.314Z,-6.40
2023-01-19T05:35:07.291Z,-6.40
2023-01-19T05:37:07.318Z,-6.50
2023-01-19T05:39:07.441Z,-6.50
2023-01-19T05:41:07.462Z,-6.60
2023-01-19T05:43:07.310Z,-6.60
2023-01-19T05:45:07.285Z,-6.60
2023-01-19T05:47:07.322Z,-6.70
2023-01-19T05:49:07.308Z,-6.70
2023-01-19T05:51:07.363Z,-6.70
2023-01-19T05:53:07.403Z,-6.70
2023-01-19T05:55:07.298Z,-6.70
2023-01-19T05:57:07.339Z,-6.60
2023-01-19T05:59:07.434Z,-6.60
2023-01-19T06:01:07.362Z,-6.60
2023-01-19T06:03:07.370Z,-6.60
2023-01-19T06:05:07.318Z,-6.60
2023-01-19T06:07:07.506Z,-6.60
2023-01-19T06:09:07.393Z,-6.60
2023-01-19T06:11:07.348Z,-6.60
2023-01-19T06:13:07.371Z,-6.60
2023-01-19T06:15:07.520Z,-6.60
2023-01-19T06:17:07.427Z,-6.60
2023-01-19T06:19:07.367Z,-6.00
2023-01-19T06:21:07.345Z,-6.00
2023-01-19T06:23:07.887Z,-6.00
2023-01-19T06:25:07.434Z,-6.00
2023-01-19T06:27:07.358Z,-6.00
2023-01-19T06:29:07.352Z,-6.00
2023-01-19T06:31:07.382Z,-6.00
2023-01-19T06:33:07.404Z,-6.10
2023-01-19T06:35:07.337Z,-6.10
2023-01-19T06:37:07.338Z,-6.10
2023-01-19T06:39:07.504Z,-6.10
2023-01-19T06:41:07.433Z,-5.90
2023-01-19T06:43:07.351Z,-5.70
2023-01-19T06:45:37.435Z,-5.70
2023-01-19T06:47:37.457Z,-5.50
2023-01-19T06:49:37.347Z,-5.50
2023-01-19T06:51:37.343Z,-5.50
2023-01-19T06:53:37.422Z,-5.50
2023-01-19T06:55:37.377Z,-5.50
2023-01-19T06:57:37.443Z,-5.50
2023-01-19T06:59:37.453Z,-5.50
2023-01-19T07:01:37.435Z,-5.50
2023-01-19T07:03:37.505Z,-5.50
2023-01-19T07:05:37.407Z,-5.50
2023-01-19T07:07:37.382Z,-5.50
2023-01-19T07:09:37.543Z,-5.50
2023-01-19T07:11:37.430Z,-5.50
2023-01-19T07:13:37.447Z,-5.50
2023-01-19T07:15:37.360Z,-5.30
2023-01-19T07:17:37.366Z,-5.10
2023-01-19T07:19:37.353Z,-5.10
2023-01-19T07:21:37.362Z,-5.10
2023-01-19T07:23:37.608Z,-5.10
2023-01-19T07:25:37.414Z,-5.10
2023-01-19T07:27:37.655Z,-5.30
2023-01-19T07:29:37.435Z,-5.10
2023-01-19T07:31:37.648Z,-5.10
2023-01-19T07:33:37.366Z,-5.10
2023-01-19T07:35:37.345Z,-5.00
2023-01-19T07:37:37.328Z,-5.00
2023-01-19T07:39:37.371Z,-5.00
2023-01-19T07:41:37.395Z,-5.00
2023-01-19T07:43:37.441Z,-5.00
2023-01-19T07:45:37.378Z,-5.10
2023-01-19T07:47:37.378Z,-5.10
2023-01-19T07:49:37.398Z,-5.10
2023-01-19T07:51:37.384Z,-5.10
2023-01-19T07:53:37.385Z,-5.10
2023-01-19T07:55:37.467Z,-5.10
2023-01-19T07:57:37.386Z,-5.10
2023-01-19T07:59:37.358Z,-5.30
2023-01-19T08:01:37.419Z,-5.30
2023-01-19T08:03:37.377Z,-5.10
2023-01-19T08:05:37.450Z,-5.30
2023-01-19T08:07:37.385Z,-5.30
2023-01-19T08:09:37.362Z,-5.30
2023-01-19T08:11:37.371Z,-5.30
2023-01-19T08:13:37.479Z,-5.30
2023-01-19T08:15:37.486Z,-5.30
2023-01-19T08:17:37.400Z,-5.30
2023-01-19T08:19:38.185Z,-5.30
2023-01-19T08:21:37.360Z,-5.30
2023-01-19T08:23:37.383Z,-5.30
2023-01-19T08:25:37.370Z,-5.30
2023-01-19T08:27:37.397Z,-5.30
2023-01-19T08:29:37.485Z,-5.30
2023-01-19T08:32:07.519Z,-5.00
2023-01-19T08:34:07.393Z,-5.00
2023-01-19T08:36:07.402Z,-5.00
2023-01-19T08:38:07.473Z,-5.00
2023-01-19T08:40:07.392Z,-5.00
2023-01-19T08:42:07.394Z,-5.00
2023-01-19T08:44:07.364Z,-5.00
2023-01-19T08:46:07.635Z,-5.00
2023-01-19T08:48:07.420Z,-5.00
2023-01-19T08:50:07.365Z,-4.90
2023-01-19T08:52:07.443Z,-4.90
2023-01-19T08:54:07.458Z,-4.80
2023-01-19T08:56:07.397Z,-4.60
2023-01-19T08:58:07.403Z,-4.60
2023-01-19T09:00:07.603Z,-4.60
2023-01-19T09:02:07.510Z,-4.60
2023-01-19T09:04:07.422Z,-4.60
2023-01-19T09:06:07.385Z,-4.60
2023-01-19T09:08:07.396Z,-4.60
2023-01-19T09:10:07.416Z,-4.60
2023-01-19T09:12:07.421Z,-4.60
2023-01-19T09:14:07.778Z,-4.60
2023-01-19T09:16:07.605Z,-4.60
2023-01-19T09:18:07.452Z,-4.60
2023-01-19T09:20:07.406Z,-4.60
2023-01-19T09:22:07.419Z,-4.60
2023-01-19T09:24:07.424Z,-4.70
2023-01-19T09:26:07.413Z,-4.70
2023-01-19T09:28:07.384Z,-4.70
2023-01-19T09:30:07.591Z,-4.70
2023-01-19T09:32:07.416Z,-4.60
2023-01-19T09:34:07.412Z,-4.60
2023-01-19T09:36:07.420Z,-4.60
2023-01-19T09:38:07.464Z,-4.60
2023-01-19T09:40:07.484Z,-4.60
2023-01-19T09:42:07.414Z,-4.50
2023-01-19T09:44:07.413Z,-4.40
2023-01-19T09:46:07.543Z,-4.20
2023-01-19T09:48:07.724Z,-4.20
2023-01-19T09:50:07.533Z,-4.10
2023-01-19T09:52:07.429Z,-4.00
2023-01-19T09:56:07.438Z,-3.60
2023-01-19T09:58:07.492Z,-3.60
2023-01-19T10:00:07.457Z,-3.40
2023-01-19T10:02:07.458Z,-3.10
2023-01-19T10:04:07.524Z,-3.00
2023-01-19T10:06:07.435Z,-2.80
2023-01-19T10:08:07.497Z,-2.80
2023-01-19T10:10:07.511Z,-2.70
2023-01-19T10:12:07.457Z,-2.60
2023-01-19T10:14:07.496Z,-2.50
2023-01-19T10:18:37.469Z,-2.60
2023-01-19T10:24:29.238Z,-2.60
2023-01-19T10:26:29.249Z,-2.60
2023-01-19T10:28:29.366Z,-2.30
2023-01-19T10:30:29.278Z,-2.10
2023-01-19T10:32:29.259Z,-2.10
2023-01-19T10:34:29.251Z,-1.60
2023-01-19T10:36:29.306Z,-1.60
2023-01-19T10:38:29.301Z,-1.50
2023-01-19T10:40:29.272Z,-1.60
2023-01-19T10:42:29.249Z,-1.60
2023-01-19T10:44:29.233Z,-1.60
2023-01-19T10:46:29.558Z,-1.70
2023-01-19T10:48:29.238Z,-1.70
2023-01-19T10:50:29.269Z,-1.70
2023-01-19T10:52:29.260Z,-1.80
2023-01-19T10:54:29.280Z,-1.80
2023-01-19T10:56:29.239Z,-2.00
2023-01-19T10:58:29.286Z,-2.20
2023-01-19T11:00:29.297Z,-2.20
2023-01-19T11:02:29.517Z,-1.90
2023-01-19T11:04:29.358Z,-1.90
2023-01-19T11:06:29.294Z,-1.70
2023-01-19T11:08:29.248Z,-1.00
2023-01-19T11:10:29.268Z,-0.40
2023-01-19T11:12:29.235Z,-0.40
2023-01-19T11:14:29.266Z,-0.30
2023-01-19T11:16:29.305Z,0.00
2023-01-19T11:18:29.335Z,-0.20
2023-01-19T11:20:29.265Z,-0.20
2023-01-19T11:22:29.257Z,-0.20
2023-01-19T11:24:29.249Z,-0.40
2023-01-19T11:26:29.243Z,-0.40
2023-01-19T11:28:29.281Z,-0.40
2023-01-19T11:30:29.268Z,-0.40
2023-01-19T11:32:29.252Z,-0.40
2023-01-19T11:34:59.314Z,-0.50
2023-01-19T11:36:59.294Z,-0.50
2023-01-19T11:38:59.272Z,-0.50
2023-01-19T11:40:59.325Z,-0.50
2023-01-19T11:42:59.609Z,-0.60
2023-01-19T11:44:59.303Z,-0.60
2023-01-19T11:46:59.264Z,-0.60
2023-01-19T11:48:59.337Z,-0.30
2023-01-19T11:50:59.290Z,-0.30
2023-01-19T11:52:59.326Z,-0.30
2023-01-19T11:54:59.277Z,-0.30
2023-01-19T11:56:59.301Z,-0.30
2023-01-19T11:58:59.320Z,-0.30
2023-01-19T12:00:59.317Z,-0.30
2023-01-19T12:02:59.441Z,-0.40
2023-01-19T12:04:59.309Z,-0.40
2023-01-19T12:06:59.285Z,-0.20
2023-01-19T12:08:59.297Z,-0.20
2023-01-19T12:10:59.312Z,0.00
2023-01-19T12:12:59.323Z,0.00
2023-01-19T12:14:59.295Z,-0.20
2023-01-19T12:16:59.302Z,-0.20
2023-01-19T12:18:59.336Z,-0.30
2023-01-19T12:20:59.570Z,-0.30
2023-01-19T12:22:59.824Z,-0.30
2023-01-19T12:24:59.319Z,0.10
2023-01-19T12:26:59.278Z,0.00
2023-01-19T12:28:59.312Z,0.00
2023-01-19T12:30:59.427Z,0.10
2023-01-19T12:32:59.352Z,0.10
2023-01-19T12:34:59.324Z,0.00
2023-01-19T12:36:59.328Z,-0.20
2023-01-19T12:38:59.299Z,-0.30
2023-01-19T12:40:59.292Z,-0.20
2023-01-19T12:42:59.296Z,-0.20
2023-01-19T12:44:59.318Z,-0.20
2023-01-19T12:46:59.362Z,-0.20
2023-01-19T12:48:59.341Z,-0.20
2023-01-19T12:50:59.331Z,-0.20
2023-01-19T12:52:59.344Z,-0.20
2023-01-19T12:54:59.324Z,-0.30
2023-01-19T12:56:59.340Z,-0.20
2023-01-19T12:58:59.294Z,-0.20
2023-01-19T13:00:59.427Z,-0.20
2023-01-19T13:02:59.377Z,-0.20
2023-01-19T13:04:59.303Z,-0.30
2023-01-19T13:06:59.337Z,-0.30
2023-01-19T13:08:59.284Z,-0.20
2023-01-19T13:10:59.391Z,-0.20
2023-01-19T13:12:59.299Z,-0.30
2023-01-19T13:14:59.675Z,-0.20
2023-01-19T13:16:59.366Z,-0.20
2023-01-19T13:18:59.293Z,-0.20
2023-01-19T13:20:59.344Z,-0.20
2023-01-19T13:22:59.301Z,-0.20
2023-01-19T13:25:29.359Z,-0.20
2023-01-19T13:27:29.341Z,-0.20
2023-01-19T13:29:29.379Z,-0.20
2023-01-19T13:31:29.332Z,-0.20
2023-01-19T13:33:29.322Z,-0.20
2023-01-19T13:35:29.389Z,-0.20
2023-01-19T13:37:31.258Z,-0.30
2023-01-19T13:39:29.332Z,-0.30
2023-01-19T13:41:29.322Z,-0.30
2023-01-19T13:43:29.365Z,-0.30
2023-01-19T13:45:29.342Z,-0.30
2023-01-19T13:47:29.346Z,-0.30
2023-01-19T13:49:29.332Z,-0.30
2023-01-19T13:51:29.309Z,-0.40
2023-01-19T13:53:29.339Z,-0.50
2023-01-19T13:55:29.340Z,-0.40
2023-01-19T13:57:29.331Z,-0.40
2023-01-19T13:59:29.351Z,-0.50
2023-01-19T14:01:29.592Z,-0.50
2023-01-19T14:03:29.403Z,-0.50
2023-01-19T14:05:29.396Z,-0.50
2023-01-19T14:07:29.389Z,-0.50
2023-01-19T14:09:29.371Z,-0.50
2023-01-19T14:11:29.342Z,-0.60
2023-01-19T14:13:29.369Z,-0.60
2023-01-19T14:15:29.423Z,-0.60
2023-01-19T14:17:29.386Z,-0.60
2023-01-19T14:19:29.404Z,-0.60
2023-01-19T14:21:29.350Z,-0.70
2023-01-19T14:23:29.370Z,-0.70
2023-01-19T14:25:29.351Z,-0.70
2023-01-19T14:27:29.368Z,-0.80
2023-01-19T14:29:29.359Z,-0.70
2023-01-19T14:31:29.391Z,-0.70
2023-01-19T14:33:29.345Z,-0.80
2023-01-19T14:35:29.549Z,-0.80
2023-01-19T14:37:29.338Z,-0.80
2023-01-19T14:39:29.375Z,-0.90
2023-01-19T14:41:29.356Z,-0.90
2023-01-19T14:43:29.337Z,-0.90
2023-01-19T14:45:29.360Z,-0.90
2023-01-19T14:47:29.379Z,-1.00
2023-01-19T14:49:29.414Z,-1.00
2023-01-19T14:51:29.380Z,-1.10
2023-01-19T14:53:29.367Z,-1.10
2023-01-19T14:55:29.405Z,-1.10
2023-01-19T14:57:29.346Z,-1.20
2023-01-19T14:59:29.391Z,-1.20
2023-01-19T15:01:29.598Z,-1.20
2023-01-19T15:03:43.676Z,-1.20
2023-01-19T15:05:29.404Z,-1.20
2023-01-19T15:07:29.393Z,-1.30
2023-01-19T15:09:59.496Z,-1.30
2023-01-19T15:11:59.388Z,-1.30
2023-01-19T15:13:59.422Z,-1.40
2023-01-19T15:15:59.611Z,-1.40
2023-01-19T15:17:59.432Z,-1.40
2023-01-19T15:19:59.440Z,-1.40
2023-01-19T15:21:59.554Z,-1.40
2023-01-19T15:23:59.361Z,-1.40
2023-01-19T15:25:59.417Z,-1.40
2023-01-19T15:27:59.380Z,-1.50
2023-01-19T15:29:59.420Z,-1.50
2023-01-19T15:31:59.404Z,-1.50
2023-01-19T15:33:59.434Z,-1.50
2023-01-19T15:35:59.499Z,-1.50
2023-01-19T15:37:59.498Z,-1.50
2023-01-19T15:39:59.487Z,-1.50
2023-01-19T15:41:59.399Z,-1.50
2023-01-19T15:43:59.543Z,-1.50
2023-01-19T15:45:59.470Z,-1.50
2023-01-19T15:47:59.417Z,-1.60
2023-01-19T15:49:59.555Z,-1.60
2023-01-19T15:51:59.559Z,-1.60
2023-01-19T15:53:59.795Z,-1.60
2023-01-19T15:55:59.861Z,-1.60
2023-01-19T15:57:59.528Z,-1.60
2023-01-19T15:59:59.401Z,-1.60
2023-01-19T16:01:59.563Z,-1.70
2023-01-19T16:03:59.472Z,-1.70
2023-01-19T16:05:59.458Z,-1.70
2023-01-19T16:08:01.720Z,-1.80
2023-01-19T16:09:59.492Z,-1.80
2023-01-19T16:11:59.461Z,-1.80
2023-01-19T16:13:59.402Z,-1.80
2023-01-19T16:15:59.469Z,-1.80
2023-01-19T16:17:59.499Z,-1.80
2023-01-19T16:19:59.567Z,-1.80
2023-01-19T16:21:59.482Z,-1.80
2023-01-19T16:23:59.501Z,-1.80
2023-01-19T16:25:59.527Z,-1.80
2023-01-19T16:27:59.491Z,-1.80
2023-01-19T16:29:59.486Z,-1.80
2023-01-19T16:31:59.631Z,-1.80
2023-01-19T16:33:59.529Z,-1.80
2023-01-19T16:35:59.490Z,-1.80
2023-01-19T16:37:59.515Z,-1.80
2023-01-19T16:39:59.616Z,-1.80
2023-01-19T16:41:59.559Z,-1.80
2023-01-19T16:43:59.438Z,-1.90
2023-01-19T16:45:59.584Z,-1.90
2023-01-19T16:47:59.544Z,-1.90
2023-01-19T16:49:59.479Z,-1.90
2023-01-19T16:51:59.481Z,-1.90
2023-01-19T16:53:59.547Z,-1.90
2023-01-19T16:56:29.843Z,-1.90
2023-01-19T16:58:29.771Z,-1.90
2023-01-19T17:00:29.529Z,-1.90
2023-01-19T17:02:29.536Z,-1.90
2023-01-19T17:04:29.503Z,-1.90
2023-01-19T17:06:30.733Z,-1.90
2023-01-19T17:08:29.550Z,-1.90
2023-01-19T17:10:29.618Z,-1.90
2023-01-19T17:12:32.101Z,-1.90
2023-01-19T17:16:29.499Z,-1.80
2023-01-19T17:18:31.759Z,-1.80
2023-01-19T17:20:12.937Z,-1.80
2023-01-19T17:22:12.614Z,-1.80
2023-01-19T17:24:12.647Z,-1.80
2023-01-19T17:26:12.655Z,-1.80
2023-01-19T17:28:12.658Z,-1.80
2023-01-19T17:30:12.933Z,-1.80
2023-01-19T17:32:12.752Z,-1.80
2023-01-19T17:34:12.641Z,-1.80
2023-01-19T17:36:12.586Z,-1.80
2023-01-19T17:38:12.618Z,-1.80
2023-01-19T17:40:12.839Z,-2.10
2023-01-19T17:42:12.645Z,-2.20
2023-01-19T17:44:42.692Z,-2.20
2023-01-19T17:46:42.703Z,-2.20
2023-01-19T17:48:42.697Z,-2.20
2023-01-19T17:50:42.664Z,-2.20
2023-01-19T17:52:42.641Z,-2.20
2023-01-19T17:54:42.685Z,-2.40
2023-01-19T17:56:42.659Z,-2.40
2023-01-19T17:58:42.682Z,-2.40
2023-01-19T18:00:42.732Z,-2.40
2023-01-19T18:02:42.754Z,-2.60
2023-01-19T18:04:42.630Z,-2.60
2023-01-19T18:06:42.713Z,-2.70
2023-01-19T18:08:42.667Z,-2.70
2023-01-19T18:10:42.721Z,-2.70
2023-01-19T18:12:42.679Z,-2.80
2023-01-19T18:14:42.806Z,-2.80
2023-01-19T18:16:42.620Z,-2.80
2023-01-19T18:18:42.629Z,-2.80
2023-01-19T18:20:42.656Z,-2.80
2023-01-19T18:22:42.662Z,-2.90
2023-01-19T18:24:42.644Z,-2.80
2023-01-19T18:26:42.738Z,-2.80
2023-01-19T18:28:42.698Z,-2.80
2023-01-19T18:30:42.823Z,-2.80
2023-01-19T18:32:42.719Z,-2.80
2023-01-19T18:34:42.953Z,-2.80
2023-01-19T18:36:42.668Z,-2.80
2023-01-19T18:38:42.686Z,-2.80
2023-01-19T18:40:42.707Z,-2.80
2023-01-19T18:42:42.766Z,-2.80
2023-01-19T18:44:42.740Z,-2.60
2023-01-19T18:46:42.783Z,-2.60
2023-01-19T18:48:42.605Z,-2.60
2023-01-19T18:50:42.650Z,-2.60
2023-01-19T18:52:43.707Z,-2.60
2023-01-19T18:54:42.713Z,-2.60
2023-01-19T18:56:42.724Z,-2.60
2023-01-19T18:58:42.728Z,-2.60
2023-01-19T19:00:42.751Z,-2.60
2023-01-19T19:02:42.639Z,-2.60
2023-01-19T19:04:42.641Z,-2.50
2023-01-19T19:06:42.694Z,-2.50
2023-01-19T19:08:42.680Z,-2.50
2023-01-19T19:10:42.807Z,-2.50
2023-01-19T19:12:42.716Z,-2.40
2023-01-19T19:14:42.728Z,-2.40
2023-01-19T19:16:42.749Z,-2.40
2023-01-19T19:18:42.667Z,-2.40
2023-01-19T19:20:42.672Z,-2.40
2023-01-19T19:22:42.677Z,-2.40
2023-01-19T19:24:42.751Z,-2.40
2023-01-19T19:26:42.815Z,-2.40
2023-01-19T19:28:42.715Z,-2.40
2023-01-19T19:31:12.863Z,-2.40
2023-01-19T19:33:12.667Z,-2.40
2023-01-19T19:35:12.896Z,-2.40
2023-01-19T19:37:12.721Z,-2.40
2023-01-19T19:39:12.766Z,-2.40
2023-01-19T19:41:12.730Z,-2.50
2023-01-19T19:43:12.757Z,-2.50
2023-01-19T19:45:12.742Z,-2.50
2023-01-19T19:47:12.781Z,-2.50
2023-01-19T19:49:12.740Z,-2.50
2023-01-19T19:51:18.148Z,-2.50
2023-01-19T19:53:12.739Z,-2.50
2023-01-19T19:55:12.894Z,-2.50
2023-01-19T19:57:15.739Z,-2.50
2023-01-19T19:59:12.763Z,-2.50
2023-01-19T20:01:12.838Z,-2.50
2023-01-19T20:03:12.659Z,-2.50
2023-01-19T20:05:12.692Z,-2.40
2023-01-19T20:07:12.719Z,-2.40
2023-01-19T20:09:12.763Z,-2.40
2023-01-19T20:11:12.741Z,-2.40
2023-01-19T20:13:12.677Z,-2.40
2023-01-19T20:15:12.771Z,-2.40
2023-01-19T20:17:12.805Z,-2.40
2023-01-19T20:19:12.700Z,-2.50
2023-01-19T20:21:12.809Z,-2.50
2023-01-19T20:23:12.828Z,-2.50
2023-01-19T20:25:12.752Z,-2.50
2023-01-19T20:27:12.858Z,-2.50
2023-01-19T20:29:12.974Z,-2.50
2023-01-19T20:31:12.777Z,-2.50
2023-01-19T20:33:12.698Z,-2.60
2023-01-19T20:35:13.106Z,-2.60
2023-01-19T20:37:12.752Z,-2.60
2023-01-19T20:39:12.764Z,-2.60
2023-01-19T20:41:12.958Z,-2.60
2023-01-19T20:43:12.772Z,-2.60
2023-01-19T20:45:13.137Z,-2.70
2023-01-19T20:47:12.775Z,-2.70
2023-01-19T20:49:12.745Z,-2.70
2023-01-19T20:51:12.744Z,-2.70
2023-01-19T20:53:12.868Z,-2.70
2023-01-19T20:55:12.946Z,-2.70
2023-01-19T20:57:12.780Z,-2.70
2023-01-19T20:59:12.834Z,-2.70
2023-01-19T21:01:12.843Z,-2.70
2023-01-19T21:03:12.686Z,-2.70
2023-01-19T21:05:12.989Z,-2.70
2023-01-19T21:07:12.785Z,-2.70
2023-01-19T21:09:12.765Z,-2.70
2023-01-19T21:11:12.805Z,-2.70
2023-01-19T21:13:12.774Z,-2.60
2023-01-19T21:15:12.976Z,-2.50
2023-01-19T21:17:45.075Z,-2.40
2023-01-19T21:19:42.724Z,-2.40
2023-01-19T21:21:42.815Z,-2.40
2023-01-19T21:23:42.768Z,-2.40
2023-01-19T21:25:42.814Z,-2.30
2023-01-19T21:27:42.805Z,-2.30
2023-01-19T21:29:42.775Z,-2.30
2023-01-19T21:31:42.882Z,-2.30
2023-01-19T21:33:42.811Z,-2.20
2023-01-19T21:35:42.734Z,-2.20
2023-01-19T21:37:42.825Z,-2.20
2023-01-19T21:39:42.741Z,-2.30
2023-01-19T21:41:42.890Z,-2.30
2023-01-19T21:43:42.707Z,-2.30
2023-01-19T21:45:43.161Z,-2.30
2023-01-19T21:47:42.752Z,-2.30
2023-01-19T21:49:42.852Z,-2.30
2023-01-19T21:51:42.760Z,-2.30
2023-01-19T21:53:42.792Z,-2.30
2023-01-19T21:55:42.784Z,-2.30
2023-01-19T21:57:42.813Z,-2.30
2023-01-19T21:59:42.832Z,-2.30
2023-01-19T22:01:42.923Z,-2.30
2023-01-19T22:03:42.837Z,-2.40
2023-01-19T22:05:42.738Z,-2.40
2023-01-19T22:07:42.821Z,-2.40
2023-01-19T22:09:42.772Z,-2.40
2023-01-19T22:11:42.836Z,-2.40
2023-01-19T22:13:42.732Z,-2.50
2023-01-19T22:15:42.938Z,-2.50
2023-01-19T22:17:42.771Z,-2.50
2023-01-19T22:19:42.760Z,-2.50
2023-01-19T22:21:42.791Z,-2.50
2023-01-19T22:23:42.794Z,-2.50
2023-01-19T22:25:42.811Z,-2.60
2023-01-19T22:27:42.829Z,-2.60
2023-01-19T22:29:42.760Z,-2.60
2023-01-19T22:31:42.756Z,-2.60
2023-01-19T22:33:42.779Z,-2.70
2023-01-19T22:35:42.784Z,-2.70
2023-01-19T22:37:42.790Z,-2.70
2023-01-19T22:39:42.856Z,-2.70
2023-01-19T22:41:42.838Z,-2.70
2023-01-19T22:43:42.862Z,-2.70
2023-01-19T22:45:42.888Z,-2.60
2023-01-19T22:47:42.858Z,-2.60
2023-01-19T22:49:43.037Z,-2.60
2023-01-19T22:51:42.801Z,-2.80
2023-01-19T22:53:42.774Z,-2.80
2023-01-19T22:55:42.715Z,-2.80
2023-01-19T22:57:42.764Z,-2.80
2023-01-19T22:59:42.728Z,-2.80
2023-01-19T23:01:42.833Z,-2.90
2023-01-19T23:04:12.772Z,-2.90
2023-01-19T23:06:12.798Z,-2.90
2023-01-19T23:08:12.724Z,-3.00
2023-01-19T23:10:12.860Z,-3.00
2023-01-19T23:12:12.838Z,-3.00
2023-01-19T23:14:12.723Z,-3.10
2023-01-19T23:16:12.760Z,-3.10
2023-01-19T23:18:12.746Z,-3.20
2023-01-19T23:20:12.749Z,-3.20
2023-01-19T23:22:12.750Z,-3.10
2023-01-19T23:24:12.728Z,-3.10
2023-01-19T23:26:12.744Z,-3.10
2023-01-19T23:28:12.744Z,-3.20
2023-01-19T23:30:12.752Z,-3.20
2023-01-19T23:32:12.776Z,-3.20
2023-01-19T23:34:12.763Z,-3.20
2023-01-19T23:36:12.830Z,-3.20
2023-01-19T23:38:12.727Z,-3.20
2023-01-19T23:40:12.772Z,-3.20
2023-01-19T23:42:12.802Z,-3.10
2023-01-19T23:44:12.901Z,-3.10
2023-01-19T23:46:12.900Z,-3.10
2023-01-19T23:48:12.795Z,-3.00
2023-01-19T23:50:12.801Z,-3.00
2023-01-19T23:52:12.815Z,-3.00
2023-01-19T23:54:12.819Z,-3.00
2023-01-19T23:56:12.755Z,-3.00
2023-01-19T23:58:12.853Z,-2.90
